Terminal Aerodrome Forecast
Issued by NWS

Home | Current Version | Previous Version | Graphics & Text | Print | Product List | Glossary On
Versions: 1 2 3 4 5 6 7 8 9 10 11 12 13 14 15 16 17
000
FTUS43 KUNR 061622 AAA
TAFGCC
TAF AMD
KGCC 061622Z 0616/0712 33017G27KT P6SM OVC015
      TEMPO 0616/0619 4SM -RA BR OVC008
     FM070100 31010KT P6SM OVC035=

USA.gov is the U.S. government's official web portal to all federal, state and local government web resources and services.